Terminal Aerodrome Forecast
Issued by NWS Quad Cities IA IL

Home | Current Version | Previous Version | Text Only | Print | Product List | Glossary On
Versions: 1 2 3 4 5 6 7 8 9 10 11 12 13 14 15 16 17 18 19 20 21 22 23
344
FTUS43 KDVN 280621 AAA
TAFMLI
TAF AMD
KMLI 280621Z 2806/2906 VRB03KT P6SM VCTS BKN040CB
     FM280730 31003KT P6SM BKN050
     FM281200 31005KT P6SM SCT035 BKN100
     FM281600 36007KT P6SM SCT020 BKN035=

USA.gov is the U.S. government's official web portal to all federal, state and local government web resources and services.